Time;durP1;ratioP1;P1;durP2;ratioP2;P2;SDS_P1;SDS_P2;PMS_P1;PMS_P2;Temp;Humidity;BMP_temperature;BMP_pressure;BME280_temperature;BME280_humidity;BME280_pressure;Samples;Min_cycle;Max_cycle;Signal;HPM_P1;HPM_P2
2021/10/19 00:00:09;;;;;;;41.60;20.10;;;;;;;7.33;65.42;99680.73;27276;1215;3026348;-70
2021/10/19 00:02:44;;;;;;;46.20;20.10;;;;;;;7.27;65.31;99679.40;27231;1215;3070939;-72
2021/10/19 00:05:13;;;;;;;39.70;18.80;;;;;;;7.25;65.28;99685.94;27232;1215;3026378;-70
2021/10/19 00:07:43;;;;;;;42.70;20.40;;;;;;;7.15;65.75;99674.85;27241;1215;3049953;-69
2021/10/19 00:10:15;;;;;;;41.60;20.00;;;;;;;7.17;65.65;99671.48;27263;1215;3026291;-69
2021/10/19 00:12:44;;;;;;;42.30;22.00;;;;;;;7.09;65.74;99670.08;27229;1215;3026720;-70
2021/10/19 00:15:14;;;;;;;39.90;20.00;;;;;;;6.87;66.61;99665.09;27238;1215;3026653;-71
2021/10/19 00:17:44;;;;;;;40.70;18.60;;;;;;;6.91;66.48;99665.23;27224;1217;3027250;-69
2021/10/19 00:20:14;;;;;;;43.10;20.20;;;;;;;6.94;66.24;99665.84;27283;1217;3048159;-69
2021/10/19 00:22:43;;;;;;;34.80;17.90;;;;;;;6.93;66.29;99668.14;27224;1217;3027305;-66
2021/10/19 00:25:16;;;;;;;35.70;17.40;;;;;;;6.86;66.43;99666.33;27298;1218;3026063;-69
2021/10/19 00:27:47;;;;;;;41.30;20.80;;;;;;;6.80;66.23;99665.19;27226;1215;3047767;-70
2021/10/19 00:30:16;;;;;;;39.30;18.60;;;;;;;6.66;66.10;99666.29;27240;1215;3026041;-68
2021/10/19 00:32:45;;;;;;;37.00;18.10;;;;;;;6.62;66.04;99665.27;27220;1215;3028118;-69
2021/10/19 00:35:14;;;;;;;43.10;18.50;;;;;;;6.54;65.70;99664.68;27224;1216;3048470;-70
2021/10/19 00:37:44;;;;;;;37.00;17.80;;;;;;;6.41;66.04;99664.00;27205;1215;3025907;-73
2021/10/19 00:40:13;;;;;;;27.20;12.90;;;;;;;6.38;66.47;99661.01;27245;1215;3026726;-66
2021/10/19 00:42:42;;;;;;;31.50;13.00;;;;;;;7.20;65.32;99658.08;27271;1215;3048169;-67
2021/10/19 00:45:11;;;;;;;27.80;12.90;;;;;;;7.59;63.33;99656.57;27270;1209;3027454;-72
2021/10/19 00:47:46;;;;;;;30.00;13.20;;;;;;;7.56;62.56;99653.04;27298;1215;3026195;-69
2021/10/19 00:50:15;;;;;;;29.50;13.40;;;;;;;7.33;63.15;99652.64;27260;1215;3049056;-69
2021/10/19 00:52:45;;;;;;;27.00;13.10;;;;;;;7.06;63.73;99654.36;27265;1209;3026139;-69
2021/10/19 00:55:14;;;;;;;37.10;14.50;;;;;;;6.82;64.14;99657.44;27249;1215;3027393;-67
2021/10/19 00:57:45;;;;;;;32.10;14.30;;;;;;;6.76;64.35;99657.20;27206;1215;3027765;-70
2021/10/19 01:00:15;;;;;;;27.10;14.10;;;;;;;6.66;64.59;99656.71;27224;1215;3026062;-71
2021/10/19 01:02:44;;;;;;;24.80;11.90;;;;;;;6.44;65.28;99660.23;27255;1215;3027317;-70
2021/10/19 01:05:13;;;;;;;33.80;13.80;;;;;;;6.31;65.81;99655.54;27253;1215;3029408;-71
2021/10/19 01:07:42;;;;;;;24.50;13.00;;;;;;;6.17;66.23;99649.29;27211;1215;3049167;-66
2021/10/19 01:10:12;;;;;;;32.10;14.60;;;;;;;6.12;66.50;99653.30;27235;1219;3027235;-68
2021/10/19 01:12:42;;;;;;;26.80;11.00;;;;;;;6.02;66.86;99655.98;27252;1215;3028153;-67
2021/10/19 01:15:14;;;;;;;29.30;14.00;;;;;;;6.01;66.86;99650.43;27225;1215;3028409;-71
2021/10/19 01:17:47;;;;;;;;;;;;;;;6.01;67.56;99651.83;27239;1217;3049476;-68
2021/10/19 01:20:26;;;;;;;29.00;11.90;;;;;;;6.92;66.30;99651.98;27304;1217;3026692;-71
2021/10/19 01:23:00;;;;;;;27.80;13.30;;;;;;;7.31;64.14;99645.77;27256;1216;3054458;-70
2021/10/19 01:25:31;;;;;;;30.80;14.70;;;;;;;7.27;63.96;99642.84;27262;1216;3026150;-70
2021/10/19 01:28:08;;;;;;;36.80;16.50;;;;;;;7.26;64.31;99649.15;27219;1215;3027622;-65
2021/10/19 01:30:44;;;;;;;35.80;15.30;;;;;;;7.15;64.41;99653.61;27280;1215;3057010;-70
2021/10/19 01:33:13;;;;;;;35.80;16.40;;;;;;;7.03;64.27;99645.59;27292;1217;3050229;-70
2021/10/19 01:35:46;;;;;;;38.00;17.70;;;;;;;6.70;65.36;99646.98;27247;1217;3026071;-68
2021/10/19 01:38:17;;;;;;;32.80;15.70;;;;;;;6.77;64.90;99651.39;27271;1217;3025933;-70
2021/10/19 01:40:46;;;;;;;34.20;16.10;;;;;;;6.55;66.07;99653.55;27221;1217;3026285;-69
2021/10/19 01:43:18;;;;;;;38.90;18.30;;;;;;;6.56;66.07;99650.16;27233;1217;3026454;-71
2021/10/19 01:45:52;;;;;;;40.10;19.60;;;;;;;6.44;67.00;99647.20;27236;1217;3026055;-72
2021/10/19 01:48:22;;;;;;;49.40;19.80;;;;;;;6.39;67.32;99655.38;27304;1219;3049254;-71
2021/10/19 01:50:57;;;;;;;44.50;21.80;;;;;;;6.40;67.66;99651.17;27204;1218;3055697;-70
2021/10/19 01:53:26;;;;;;;32.40;16.40;;;;;;;6.39;68.27;99652.95;27263;1216;3026376;-71
2021/10/19 01:55:55;;;;;;;44.30;17.90;;;;;;;7.11;66.51;99654.98;27251;1219;3048242;-69
2021/10/19 01:58:24;;;;;;;37.50;16.60;;;;;;;7.61;64.61;99652.65;27243;1217;3025890;-70
2021/10/19 02:00:54;;;;;;;39.60;17.80;;;;;;;7.67;63.97;99650.42;27306;1218;3057704;-68
2021/10/19 02:03:23;;;;;;;41.20;20.70;;;;;;;7.60;64.20;99647.64;27237;1217;3026527;-70
2021/10/19 02:05:52;;;;;;;36.20;18.40;;;;;;;7.41;64.60;99652.13;27252;1217;3025707;-71
2021/10/19 02:08:23;;;;;;;43.90;19.50;;;;;;;7.38;64.78;99651.76;27265;1217;3058538;-71
2021/10/19 02:10:52;;;;;;;56.40;23.90;;;;;;;7.17;65.62;99653.86;27246;1209;3026164;-71
2021/10/19 02:13:21;;;;;;;44.90;19.90;;;;;;;6.96;66.76;99656.16;27210;1217;3053740;-68
2021/10/19 02:15:52;;;;;;;39.80;20.70;;;;;;;7.07;66.02;99657.29;27232;1210;3026515;-70
2021/10/19 02:18:21;;;;;;;48.50;21.90;;;;;;;7.03;65.73;99653.76;27228;1217;3026382;-66
2021/10/19 02:20:50;;;;;;;41.90;20.30;;;;;;;6.86;66.67;99662.00;27262;1217;3026142;-71
2021/10/19 02:23:19;;;;;;;49.60;23.40;;;;;;;6.85;66.29;99663.59;27236;1217;3055398;-68
2021/10/19 02:25:48;;;;;;;45.40;22.20;;;;;;;6.73;66.92;99665.12;27210;1217;3025820;-69
2021/10/19 02:28:18;;;;;;;43.00;21.70;;;;;;;6.63;67.31;99665.40;27220;1215;3050957;-68
2021/10/19 02:30:48;;;;;;;29.90;15.80;;;;;;;6.61;67.45;99668.77;27253;1215;3026304;-70
2021/10/19 02:33:19;;;;;;;32.60;16.10;;;;;;;7.26;66.35;99672.48;27201;1215;3054906;-70
2021/10/19 02:35:49;;;;;;;32.30;15.80;;;;;;;7.56;64.51;99672.71;27234;1215;3026005;-70
2021/10/19 02:38:17;;;;;;;38.10;16.60;;;;;;;7.68;64.07;99673.39;27224;1215;3026090;-68
2021/10/19 02:40:47;;;;;;;43.00;19.30;;;;;;;7.65;64.40;99667.78;27256;1215;3053702;-66
2021/10/19 02:43:16;;;;;;;40.10;19.20;;;;;;;7.47;65.08;99669.61;27258;1215;3026078;-73
2021/10/19 02:45:45;;;;;;;37.30;19.80;;;;;;;7.28;65.93;99671.52;27242;1215;3047925;-69
2021/10/19 02:48:14;;;;;;;44.50;21.70;;;;;;;7.26;65.81;99669.50;27314;1215;3027254;-69
2021/10/19 02:50:43;;;;;;;43.80;20.90;;;;;;;7.13;66.31;99666.42;27256;1215;3069720;-71
2021/10/19 02:53:12;;;;;;;40.00;20.20;;;;;;;7.07;66.40;99666.15;27247;1215;3026295;-70
2021/10/19 02:55:44;;;;;;;46.40;20.50;;;;;;;6.97;67.08;99669.00;27223;1215;3026790;-68
2021/10/19 02:58:15;;;;;;;51.50;21.30;;;;;;;6.93;67.33;99673.20;27231;1215;3026410;-71
2021/10/19 03:00:44;;;;;;;41.00;21.20;;;;;;;6.90;67.17;99677.48;27257;1215;3026171;-68
2021/10/19 03:03:13;;;;;;;25.80;12.70;;;;;;;7.01;66.83;99674.58;27217;1215;3029505;-70
2021/10/19 03:05:42;;;;;;;33.50;15.40;;;;;;;7.44;66.26;99672.58;27231;1215;3053843;-69
2021/10/19 03:08:11;;;;;;;30.20;16.00;;;;;;;7.86;65.42;99674.17;27247;1215;3028644;-70
2021/10/19 03:10:40;;;;;;;36.00;18.20;;;;;;;7.83;65.13;99675.33;27213;1215;3055741;-71
2021/10/19 03:13:13;;;;;;;38.10;18.20;;;;;;;7.76;65.60;99681.60;27231;1218;3054121;-72
2021/10/19 03:15:43;;;;;;;37.00;19.30;;;;;;;7.49;66.82;99686.96;27255;1215;3028109;-70
2021/10/19 03:18:12;;;;;;;42.70;20.80;;;;;;;7.37;67.45;99692.05;27225;1216;3026378;-66
2021/10/19 03:20:41;;;;;;;44.90;19.20;;;;;;;7.24;67.99;99691.52;27231;1217;3054439;-69
2021/10/19 03:23:10;;;;;;;42.20;21.40;;;;;;;7.19;68.51;99693.50;27249;1217;3026151;-70
2021/10/19 03:25:40;;;;;;;49.00;23.50;;;;;;;7.25;68.39;99688.21;27269;1217;3051681;-70
2021/10/19 03:28:09;;;;;;;40.70;21.20;;;;;;;7.16;68.79;99688.42;27269;1215;3026265;-71
2021/10/19 03:30:38;;;;;;;31.70;17.40;;;;;;;7.01;69.58;99686.94;27218;1215;3028149;-69
2021/10/19 03:33:07;;;;;;;38.90;18.00;;;;;;;7.53;68.46;99690.61;27241;1215;3055086;-69
2021/10/19 03:35:36;;;;;;;44.40;17.70;;;;;;;7.99;66.94;99684.74;27216;1215;3026062;-69
2021/10/19 03:38:05;;;;;;;36.60;18.50;;;;;;;8.20;65.85;99678.00;27242;1215;3048468;-68
2021/10/19 03:40:34;;;;;;;38.90;19.70;;;;;;;8.13;65.93;99680.76;27233;1215;3029117;-71
2021/10/19 03:43:05;;;;;;;39.40;20.70;;;;;;;7.89;66.48;99681.37;27263;1216;3069919;-70
2021/10/19 03:45:34;;;;;;;41.30;20.00;;;;;;;7.62;67.37;99693.40;27246;1215;3027083;-67
2021/10/19 03:48:03;;;;;;;41.10;21.30;;;;;;;7.59;67.53;99695.93;27218;1215;3026665;-66
2021/10/19 03:50:32;;;;;;;45.10;22.10;;;;;;;7.38;68.33;99698.64;27184;1215;3070706;-70
2021/10/19 03:53:01;;;;;;;43.90;22.50;;;;;;;7.35;68.35;99696.16;27209;1215;3028019;-71
2021/10/19 03:55:30;;;;;;;44.30;21.80;;;;;;;7.09;69.97;99706.48;27243;1215;3053251;-71
2021/10/19 03:57:59;;;;;;;32.20;14.30;;;;;;;7.10;70.20;99708.01;27247;1215;3029365;-68
2021/10/19 04:00:28;;;;;;;39.20;16.80;;;;;;;7.73;68.77;99707.20;27202;1215;3051540;-67
2021/10/19 04:02:57;;;;;;;34.90;16.80;;;;;;;8.22;66.95;99706.52;27233;1215;3027865;-71
2021/10/19 04:05:26;;;;;;;32.10;18.00;;;;;;;8.21;66.96;99709.90;27203;1215;3026260;-70
2021/10/19 04:07:55;;;;;;;36.30;18.30;;;;;;;8.04;67.35;99712.25;27211;1215;3054746;-73
2021/10/19 04:10:24;;;;;;;41.50;19.20;;;;;;;7.82;68.18;99709.60;27256;1215;3026034;-71
2021/10/19 04:12:58;;;;;;;35.50;17.60;;;;;;;7.73;68.58;99725.48;27225;1215;3051154;-72
2021/10/19 04:15:27;;;;;;;41.90;20.70;;;;;;;7.52;69.52;99721.89;27211;1215;3025819;-71
2021/10/19 04:17:56;;;;;;;44.10;19.90;;;;;;;7.34;70.20;99732.79;27220;1217;3055989;-69
2021/10/19 04:20:25;;;;;;;30.70;15.70;;;;;;;7.21;70.75;99730.19;27204;1217;3025935;-70
2021/10/19 04:22:54;;;;;;;24.90;13.90;;;;;;;7.21;71.17;99725.14;27257;1217;3026351;-69
2021/10/19 04:25:24;;;;;;;25.10;12.50;;;;;;;7.81;69.87;99720.40;27264;1217;3057630;-73
2021/10/19 04:27:52;;;;;;;23.60;13.20;;;;;;;8.14;68.18;99719.45;27301;1215;3026960;-67
2021/10/19 04:30:21;;;;;;;29.80;14.00;;;;;;;8.00;68.43;99721.84;27243;1217;3051669;-69
2021/10/19 04:32:51;;;;;;;36.40;17.00;;;;;;;7.80;68.78;99720.10;27210;1217;3026073;-68
2021/10/19 04:35:19;;;;;;;27.10;14.70;;;;;;;7.73;68.76;99722.02;27269;1215;3026114;-70
2021/10/19 04:37:48;;;;;;;34.40;16.70;;;;;;;7.39;70.32;99732.56;27230;1215;3055225;-70
2021/10/19 04:40:17;;;;;;;33.30;16.20;;;;;;;7.28;70.65;99740.00;27257;1215;3026309;-69
2021/10/19 04:42:46;;;;;;;40.10;17.10;;;;;;;7.15;71.39;99742.45;27231;1217;3052333;-70
2021/10/19 04:45:16;;;;;;;37.70;15.70;;;;;;;7.13;71.74;99750.04;27234;1215;3026691;-72
2021/10/19 04:47:46;;;;;;;35.90;14.00;;;;;;;7.67;70.02;99748.95;27302;1215;3028322;-70
2021/10/19 04:50:15;;;;;;;33.00;15.90;;;;;;;7.77;69.49;99763.52;27275;1215;3026878;-70
2021/10/19 04:52:44;;;;;;;27.90;12.80;;;;;;;7.71;69.49;99769.68;27256;1215;3053695;-71
2021/10/19 04:55:13;;;;;;;36.00;15.80;;;;;;;7.64;69.64;99765.45;27286;1215;3026440;-68
2021/10/19 04:57:42;;;;;;;30.30;14.20;;;;;;;7.36;70.77;99771.02;27236;1217;3051091;-68
2021/10/19 05:00:12;;;;;;;30.60;15.90;;;;;;;7.16;71.57;99779.88;27285;1215;3026464;-70
2021/10/19 05:02:48;;;;;;;31.70;14.80;;;;;;;7.01;72.23;99778.55;27338;1215;3048286;-71
2021/10/19 05:05:17;;;;;;;20.30;12.10;;;;;;;6.93;72.94;99779.41;27332;1215;3051505;-71
2021/10/19 05:07:46;;;;;;;25.00;13.80;;;;;;;7.50;71.79;99783.48;27254;1215;3030168;-70
2021/10/19 05:10:16;;;;;;;28.90;13.30;;;;;;;7.81;70.16;99781.80;27273;1215;3026659;-74
2021/10/19 05:12:45;;;;;;;27.20;13.80;;;;;;;7.76;70.36;99787.10;27349;1215;3051028;-70
2021/10/19 05:15:15;;;;;;;23.10;11.90;;;;;;;7.64;70.52;99792.84;27459;1215;3026595;-70
2021/10/19 05:17:44;;;;;;;31.90;13.40;;;;;;;7.31;71.15;99797.02;27429;1215;3026180;-67
2021/10/19 05:20:13;;;;;;;26.70;13.70;;;;;;;7.13;72.39;99802.80;27376;1215;3051461;-71
2021/10/19 05:22:42;;;;;;;25.80;14.00;;;;;;;7.05;72.74;99802.45;27307;1215;3027475;-68
2021/10/19 05:25:16;;;;;;;25.80;12.70;;;;;;;7.00;72.69;99804.05;27299;1217;3050684;-71
2021/10/19 05:27:47;;;;;;;24.80;12.20;;;;;;;7.51;71.56;99804.36;27276;1216;3026173;-68
2021/10/19 05:30:17;;;;;;;23.20;11.90;;;;;;;7.98;69.65;99797.80;27229;1215;3026478;-71
2021/10/19 05:32:46;;;;;;;24.70;13.10;;;;;;;8.20;68.52;99793.51;27266;1215;3026529;-69
2021/10/19 05:35:15;;;;;;;21.20;12.10;;;;;;;8.11;68.41;99803.52;27268;1215;3026250;-69
2021/10/19 05:37:44;;;;;;;22.40;11.80;;;;;;;7.89;69.17;99810.41;27233;1215;3052691;-70
2021/10/19 05:40:13;;;;;;;29.00;14.00;;;;;;;7.63;69.76;99811.21;27246;1217;3026578;-74
2021/10/19 05:42:42;;;;;;;25.60;13.10;;;;;;;7.54;69.94;99820.80;27230;1215;3051351;-70
2021/10/19 05:45:11;;;;;;;23.60;13.10;;;;;;;7.32;70.83;99820.84;27243;1212;3026030;-68
2021/10/19 05:47:42;;;;;;;24.90;13.20;;;;;;;7.08;71.95;99829.52;27250;1217;3050727;-72
2021/10/19 05:50:13;;;;;;;18.30;10.50;;;;;;;7.09;72.46;99836.98;27244;1215;3028332;-71
2021/10/19 05:52:42;;;;;;;22.40;9.90;;;;;;;7.57;70.85;99839.83;27235;1217;3026227;-73
2021/10/19 05:55:11;;;;;;;21.90;9.30;;;;;;;7.99;69.19;99841.02;27220;1215;3026056;-77
2021/10/19 05:57:40;;;;;;;15.50;7.50;;;;;;;8.08;68.75;99833.98;27270;1215;3051051;-71
2021/10/19 06:00:10;;;;;;;12.40;7.80;;;;;;;7.80;69.23;99838.36;27250;1215;3027402;-70
2021/10/19 06:02:42;;;;;;;10.80;6.50;;;;;;;7.59;70.40;99841.52;27252;1209;3051016;-71
2021/10/19 06:05:11;;;;;;;10.90;7.00;;;;;;;7.22;71.72;99848.98;27239;1215;3026002;-69
2021/10/19 06:07:40;;;;;;;14.00;7.10;;;;;;;7.04;73.48;99851.25;27257;1217;3067661;-73
2021/10/19 06:10:09;;;;;;;9.90;6.60;;;;;;;7.08;73.18;99851.27;27214;1215;3027977;-73
2021/10/19 06:12:38;;;;;;;16.80;5.00;;;;;;;6.95;74.10;99855.43;27228;1216;3050091;-74
2021/10/19 06:15:08;;;;;;;13.60;5.30;;;;;;;7.50;72.84;99858.45;27231;1209;3026272;-72
2021/10/19 06:17:36;;;;;;;8.90;4.80;;;;;;;7.99;70.80;99854.98;27243;1215;3054872;-70
2021/10/19 06:20:06;;;;;;;8.20;4.90;;;;;;;8.00;70.55;99859.66;27239;1215;3028748;-70
2021/10/19 06:22:35;;;;;;;8.60;4.60;;;;;;;7.89;70.57;99866.39;27218;1215;3051281;-69
2021/10/19 06:25:05;;;;;;;8.90;4.70;;;;;;;7.63;71.04;99870.65;27268;1215;3025816;-71
2021/10/19 06:27:34;;;;;;;8.60;4.10;;;;;;;7.06;72.17;99869.31;27295;1215;3055527;-72
2021/10/19 06:30:05;;;;;;;8.80;5.10;;;;;;;6.85;72.90;99878.14;27232;1215;3027228;-70
2021/10/19 06:32:34;;;;;;;7.40;4.30;;;;;;;6.62;73.64;99886.99;27230;1215;3028428;-69
2021/10/19 06:35:04;;;;;;;10.00;4.90;;;;;;;6.54;74.38;99884.86;27233;1215;3026054;-71
2021/10/19 06:37:35;;;;;;;13.20;6.50;;;;;;;6.98;73.01;99886.33;27233;1218;3027578;-68
2021/10/19 06:40:05;;;;;;;23.90;9.60;;;;;;;7.35;71.71;99881.20;27242;1215;3027037;-73
2021/10/19 06:42:34;;;;;;;32.20;11.60;;;;;;;7.57;71.32;99883.63;27215;1215;3026650;-70
2021/10/19 06:45:04;;;;;;;28.20;11.70;;;;;;;7.17;71.98;99893.08;27275;1215;3026279;-71
2021/10/19 06:47:33;;;;;;;28.40;11.60;;;;;;;6.94;72.35;99897.81;27287;1215;3027398;-72
2021/10/19 06:50:04;;;;;;;25.70;9.90;;;;;;;6.87;73.34;99893.21;27269;1216;3026804;-69
2021/10/19 06:52:36;;;;;;;17.60;8.70;;;;;;;6.77;74.00;99899.50;27203;1215;3054039;-70
2021/10/19 06:55:06;;;;;;;14.40;6.80;;;;;;;6.81;74.58;99900.22;27263;1217;3027699;-70
2021/10/19 06:57:41;;;;;;;13.10;6.10;;;;;;;7.48;72.72;99897.06;27303;1209;3026328;-73
2021/10/19 07:00:12;;;;;;;15.90;7.30;;;;;;;7.96;70.08;99902.89;27289;1217;3052280;-71
2021/10/19 07:02:41;;;;;;;24.30;10.10;;;;;;;7.74;70.53;99907.65;27263;1217;3028659;-71
2021/10/19 07:05:10;;;;;;;17.00;8.40;;;;;;;7.73;70.27;99909.63;27223;1215;3026348;-73
2021/10/19 07:07:39;;;;;;;15.90;7.50;;;;;;;7.40;71.06;99915.49;27276;1209;3053974;-72
2021/10/19 07:10:10;;;;;;;14.90;6.10;;;;;;;7.01;72.28;99920.88;27222;1217;3026031;-71
2021/10/19 07:12:56;;;;;;;9.90;5.70;;;;;;;6.76;73.57;99927.05;27267;1215;3071025;-73
2021/10/19 07:15:26;;;;;;;9.00;5.30;;;;;;;6.73;73.68;99925.95;27249;1216;3025988;-75
2021/10/19 07:17:57;;;;;;;7.70;4.40;;;;;;;6.85;73.98;99924.61;27265;1215;3054084;-68
2021/10/19 07:20:27;;;;;;;7.10;3.50;;;;;;;7.52;71.11;99922.14;27273;1215;3026137;-71
2021/10/19 07:22:56;;;;;;;12.10;5.00;;;;;;;7.67;69.47;99929.94;27243;1215;3052084;-69
2021/10/19 07:25:27;;;;;;;10.50;5.90;;;;;;;7.64;70.15;99926.21;27291;1215;3028313;-72
2021/10/19 07:28:00;;;;;;;11.80;6.10;;;;;;;7.79;69.81;99925.27;27235;1215;3029297;-74
2021/10/19 07:30:29;;;;;;;9.60;6.10;;;;;;;7.56;70.50;99928.48;27240;1215;3026024;-72
2021/10/19 07:32:58;;;;;;;10.60;5.80;;;;;;;7.25;71.43;99930.21;27269;1217;3026461;-69
2021/10/19 07:35:26;;;;;;;14.10;6.10;;;;;;;7.22;71.70;99929.09;27244;1215;3067281;-70
2021/10/19 07:37:56;;;;;;;10.60;5.90;;;;;;;7.07;71.94;99931.26;27211;1209;3025938;-75
2021/10/19 07:40:25;;;;;;;10.50;4.90;;;;;;;6.96;72.09;99932.39;27305;1216;3026125;-70
2021/10/19 07:42:55;;;;;;;12.10;5.70;;;;;;;7.67;70.46;99928.88;27226;1215;3067579;-71
2021/10/19 07:45:26;;;;;;;11.70;6.00;;;;;;;8.34;68.64;99924.98;27250;1215;3027762;-73
2021/10/19 07:48:00;;;;;;;10.20;4.70;;;;;;;8.62;67.68;99927.62;27259;1215;3026851;-70
2021/10/19 07:50:30;;;;;;;10.10;5.50;;;;;;;8.34;67.41;99933.52;27268;1215;3025769;-70
2021/10/19 07:53:00;;;;;;;8.70;5.10;;;;;;;8.00;68.62;99932.93;27245;1218;3027244;-72
2021/10/19 07:55:33;;;;;;;9.50;5.10;;;;;;;7.86;69.36;99932.97;27221;1215;3026365;-73
2021/10/19 07:58:02;;;;;;;9.80;6.00;;;;;;;7.70;69.35;99932.40;27265;1216;3051695;-67
2021/10/19 08:00:31;;;;;;;8.00;5.10;;;;;;;7.60;69.49;99941.17;27244;1216;3026400;-70
2021/10/19 08:03:00;;;;;;;10.90;5.50;;;;;;;7.54;69.34;99938.13;27323;1216;3051098;-73
2021/10/19 08:05:29;;;;;;;9.30;4.90;;;;;;;7.71;68.17;99941.63;27237;1217;3028046;-69
2021/10/19 08:08:14;;;;;;;6.50;4.00;;;;;;;7.54;66.60;99955.40;27226;1215;3048041;-71
2021/10/19 08:10:45;;;;;;;8.30;4.00;;;;;;;7.42;67.26;99953.25;27228;1215;3054140;-69
2021/10/19 08:13:14;;;;;;;11.40;4.90;;;;;;;7.39;67.58;99957.73;27241;1215;3028431;-70
2021/10/19 08:15:43;;;;;;;9.70;5.20;;;;;;;7.52;67.18;99954.42;27248;1215;3026087;-72
2021/10/19 08:18:27;;;;;;;13.20;5.40;;;;;;;7.60;67.25;99958.79;27209;1216;3054846;-68
2021/10/19 08:20:59;;;;;;;12.30;5.00;;;;;;;8.28;65.85;99963.85;27289;1215;3026192;-70
2021/10/19 08:23:28;;;;;;;12.70;5.80;;;;;;;8.63;64.01;99968.98;27260;1215;3027003;-71
2021/10/19 08:25:58;;;;;;;14.60;6.90;;;;;;;8.58;63.59;99968.70;27238;1215;3053502;-72
2021/10/19 08:28:31;;;;;;;13.90;5.40;;;;;;;8.80;62.85;99972.42;27271;1218;3026606;-70
2021/10/19 08:31:00;;;;;;;10.20;5.20;;;;;;;8.60;62.17;99972.23;27274;1216;3025863;-72
2021/10/19 08:33:29;;;;;;;7.20;3.90;;;;;;;8.47;62.57;99970.36;27241;1217;3026261;-71
2021/10/19 08:35:57;;;;;;;8.10;3.80;;;;;;;8.33;62.56;99980.52;27232;1216;3054510;-71
2021/10/19 08:38:27;;;;;;;8.60;3.70;;;;;;;8.21;62.15;99985.23;27236;1219;3026107;-69
2021/10/19 08:40:56;;;;;;;10.70;5.00;;;;;;;8.30;62.10;99979.64;27242;1216;3026086;-70
2021/10/19 08:43:26;;;;;;;8.90;4.60;;;;;;;8.26;62.02;99978.92;27208;1215;3050379;-68
2021/10/19 08:45:55;;;;;;;9.70;4.70;;;;;;;8.38;61.48;99988.55;27254;1208;3026230;-68
2021/10/19 08:48:24;;;;;;;10.70;5.00;;;;;;;8.50;60.92;99976.70;27187;1215;3026144;-68
2021/10/19 08:50:56;;;;;;;10.50;4.60;;;;;;;8.62;59.77;99978.45;27214;1218;3051716;-70
2021/10/19 08:53:26;;;;;;;7.50;3.20;;;;;;;8.49;59.21;99979.71;27217;1215;3027976;-71
2021/10/19 08:55:54;;;;;;;3.70;2.50;;;;;;;8.48;58.83;99982.55;27252;1216;3026146;-67
2021/10/19 08:58:23;;;;;;;3.60;2.50;;;;;;;8.57;57.21;99975.70;27261;1215;3026287;-70
2021/10/19 09:01:10;;;;;;;6.30;2.50;;;;;;;8.73;56.31;99983.03;27267;1216;3057682;-70
2021/10/19 09:03:47;;;;;;;3.70;1.80;;;;;;;8.75;52.66;99976.13;27225;1215;3049775;-70
2021/10/19 09:06:17;;;;;;;7.90;1.90;;;;;;;8.70;51.31;99978.80;27270;1216;3052906;-70
2021/10/19 09:08:50;;;;;;;3.50;1.80;;;;;;;8.92;51.83;99976.59;27322;1216;3026253;-66
2021/10/19 09:11:20;;;;;;;6.50;2.00;;;;;;;9.42;51.34;99976.70;27255;1215;3026468;-73
2021/10/19 09:13:54;;;;;;;3.70;1.90;;;;;;;9.46;51.19;99974.23;27272;1217;3026495;-72
2021/10/19 09:16:49;;;;;;;5.90;2.40;;;;;;;9.11;50.61;99979.35;27276;1215;3052132;-71
2021/10/19 09:19:19;;;;;;;6.70;1.70;;;;;;;9.16;50.56;99970.42;27336;1216;3052322;-66
2021/10/19 09:21:56;;;;;;;5.20;2.00;;;;;;;9.35;49.43;99967.44;27325;1217;3026113;-68
2021/10/19 09:24:27;;;;;;;5.60;1.80;;;;;;;9.42;48.87;99974.98;27273;1216;3048790;-69
2021/10/19 09:27:14;;;;;;;3.90;1.70;;;;;;;9.59;48.78;99966.98;27296;1218;3027968;-70
2021/10/19 09:29:49;;;;;;;3.70;2.00;;;;;;;9.53;48.30;99976.73;27291;1216;3050781;-64
2021/10/19 09:32:19;;;;;;;7.70;1.60;;;;;;;9.41;46.97;99977.63;27239;1215;3068857;-68
2021/10/19 09:34:48;;;;;;;2.70;1.80;;;;;;;9.49;46.59;99965.20;27328;1216;3028419;-71
2021/10/19 09:37:21;;;;;;;3.20;1.00;;;;;;;9.40;45.76;99968.23;27244;1215;3053426;-65
2021/10/19 09:39:51;;;;;;;4.30;1.80;;;;;;;9.37;45.70;99974.31;27268;1219;3026389;-67
2021/10/19 09:42:24;;;;;;;4.70;1.70;;;;;;;9.51;45.27;99963.35;27276;1216;3026436;-68
2021/10/19 09:44:57;;;;;;;7.60;2.70;;;;;;;9.69;45.20;99970.70;27252;1216;3025962;-70
2021/10/19 09:47:39;;;;;;;11.00;3.40;;;;;;;9.81;45.02;99966.95;27307;1215;3051594;-65
2021/10/19 09:50:09;;;;;;;9.80;3.30;;;;;;;9.85;44.80;99967.30;27239;1219;3056033;-68
2021/10/19 09:52:38;;;;;;;9.50;2.80;;;;;;;9.81;44.05;99969.04;27232;1216;3027217;-70
2021/10/19 09:55:10;;;;;;;6.00;2.20;;;;;;;9.85;44.69;99973.60;27248;1216;3026496;-72
2021/10/19 09:57:59;;;;;;;6.40;2.80;;;;;;;9.74;44.97;99972.20;27245;1217;3057884;-70
2021/10/19 10:00:32;;;;;;;8.00;2.30;;;;;;;9.92;45.29;99972.20;27236;1219;3050234;-71
2021/10/19 10:03:03;;;;;;;7.70;2.10;;;;;;;9.88;45.66;99976.91;27228;1219;3056096;-73
2021/10/19 10:05:33;;;;;;;4.20;2.20;;;;;;;9.81;45.97;99972.37;27227;1218;3026467;-64
2021/10/19 10:08:04;;;;;;;2.20;1.30;;;;;;;9.76;46.07;99973.00;27207;1219;3026072;-68
2021/10/19 10:10:35;;;;;;;4.90;2.10;;;;;;;9.98;44.89;99970.33;27270;1219;3028199;-66
2021/10/19 10:13:06;;;;;;;5.70;1.80;;;;;;;9.98;43.82;99969.28;27226;1218;3028421;-71
2021/10/19 10:15:35;;;;;;;11.10;3.90;;;;;;;10.23;43.74;99971.18;27271;1217;3068910;-68
2021/10/19 10:18:05;;;;;;;5.10;2.00;;;;;;;10.11;42.87;99977.39;27189;1217;3027978;-69
2021/10/19 10:20:39;;;;;;;3.00;1.30;;;;;;;10.06;42.37;99974.66;27271;1217;3026210;-70
2021/10/19 10:23:19;;;;;;;4.50;1.60;;;;;;;10.00;41.95;99974.94;27245;1217;3054324;-70
2021/10/19 10:25:50;;;;;;;3.40;1.60;;;;;;;9.76;43.20;99975.77;27241;1219;3055736;-66
2021/10/19 10:28:26;;;;;;;3.50;1.70;;;;;;;9.77;43.90;99987.80;27243;1219;3027684;-72
2021/10/19 10:31:01;;;;;;;3.50;1.60;;;;;;;9.90;43.93;99977.88;27269;1220;3052740;-71
2021/10/19 10:33:41;;;;;;;3.90;1.40;;;;;;;10.03;43.38;99971.46;27470;1216;3050539;-62
2021/10/19 10:36:12;;;;;;;7.10;1.80;;;;;;;10.35;42.58;99981.43;27231;1216;3068113;-73
2021/10/19 10:38:53;;;;;;;3.40;1.60;;;;;;;10.16;41.30;99985.15;27228;1217;3026475;-69
2021/10/19 10:41:22;;;;;;;2.60;1.50;;;;;;;9.92;41.50;99984.64;27222;1216;3051074;-70
2021/10/19 10:44:01;;;;;;;4.30;1.90;;;;;;;9.69;40.56;99985.05;27220;1216;3027888;-66
2021/10/19 10:46:32;;;;;;;5.10;1.50;;;;;;;9.57;41.50;99987.73;27296;1216;3049029;-70
2021/10/19 10:49:01;;;;;;;3.80;2.00;;;;;;;9.45;42.84;99989.18;27216;1215;3026430;-68
2021/10/19 10:51:32;;;;;;;4.60;1.90;;;;;;;9.60;43.26;99993.87;27217;1216;3026870;-68
2021/10/19 10:54:01;;;;;;;3.70;2.00;;;;;;;9.80;43.22;99986.42;27253;1216;3047894;-70
2021/10/19 10:56:40;;;;;;;8.10;2.50;;;;;;;10.23;43.05;99984.30;27214;1216;3026499;-69
2021/10/19 10:59:09;;;;;;;7.00;2.60;;;;;;;10.57;42.41;99982.40;27258;1216;3068933;-67
2021/10/19 11:01:39;;;;;;;12.10;2.90;;;;;;;10.72;41.25;99989.67;27202;1217;3026416;-70
2021/10/19 11:04:09;;;;;;;4.40;1.90;;;;;;;10.63;40.20;99981.40;27254;1215;3026242;-72
2021/10/19 11:06:39;;;;;;;5.30;1.90;;;;;;;10.34;39.59;99985.52;27227;1216;3067915;-69
2021/10/19 11:09:13;;;;;;;11.10;4.10;;;;;;;10.06;40.11;99988.64;27234;1216;3027877;-69
2021/10/19 11:11:50;;;;;;;4.20;2.30;;;;;;;10.17;40.20;99990.04;27224;1216;3054649;-69
2021/10/19 11:14:23;;;;;;;7.20;2.90;;;;;;;10.37;40.15;99990.23;27222;1216;3029607;-68
2021/10/19 11:16:53;;;;;;;6.80;2.10;;;;;;;10.45;40.30;99986.89;27276;1216;3025697;-72
2021/10/19 11:19:29;;;;;;;5.40;2.00;;;;;;;10.88;40.07;99986.72;27231;1218;3027781;-70
2021/10/19 11:22:00;;;;;;;8.00;2.40;;;;;;;11.05;39.97;99980.91;27301;1216;3054971;-68
2021/10/19 11:24:30;;;;;;;3.60;1.60;;;;;;;10.89;40.29;99988.06;27292;1217;3026335;-67
2021/10/19 11:27:02;;;;;;;3.00;1.20;;;;;;;10.61;39.64;99981.98;27229;1215;3027777;-69
2021/10/19 11:29:37;;;;;;;3.60;1.30;;;;;;;10.41;39.42;99977.61;27239;1216;3025970;-67